Terminal Aerodrome Forecast
Issued by NWS King Salmon, AK

Home | Current Version | Previous Version | Text Only | Print | Product List | Glossary On
Versions: 1 2 3 4 5 6 7 8 9 10 11 12 13 14 15 16
000
FTAK31 PANC 280538
TAFAKN
TAF
PAKN 280538Z 2806/2906 05010KT P6SM VCSH SCT035 BKN060
     FM281500 VRB04KT P6SM VCSH SCT050 BKN120
     FM290000 18008G18KT P6SM -RA BKN025 OVC035=

USA.gov is the U.S. government's official web portal to all federal, state and local government web resources and services.